Time;durP1;ratioP1;P1;durP2;ratioP2;P2;SDS_P1;SDS_P2;PMS_P1;PMS_P2;Temp;Humidity;BMP_temperature;BMP_pressure;BME280_temperature;BME280_humidity;BME280_pressure;Samples;Min_cycle;Max_cycle;Signal;HPM_P1;HPM_P2
2021/10/31 00:00:49;;;;;;;25.15;15.50;;;;;;;;;;5048911;28;20027;-55
2021/10/31 00:03:17;;;;;;;26.52;16.05;;;;;;;;;;5073843;28;20016;-55
2021/10/31 00:05:52;;;;;;;25.25;15.63;;;;;;;;;;5073950;28;20024;-55
2021/10/31 00:08:19;;;;;;;23.55;14.80;;;;;;;;;;5073736;28;20016;-55
2021/10/31 00:10:49;;;;;;;22.55;15.48;;;;;;;;;;5073606;28;20033;-56
2021/10/31 00:13:15;;;;;;;31.05;18.25;;;;;;;;;;5073626;28;20021;-56
2021/10/31 00:15:41;;;;;;;29.95;16.70;;;;;;;;;;5073859;28;20430;-54
2021/10/31 00:18:07;;;;;;;26.40;16.42;;;;;;;;;;5072328;28;20407;-54
2021/10/31 00:20:33;;;;;;;22.67;15.10;;;;;;;;;;5073164;28;20403;-54
2021/10/31 00:23:00;;;;;;;24.85;15.55;;;;;;;;;;5073659;28;20362;-53
2021/10/31 00:25:26;;;;;;;24.48;16.25;;;;;;;;;;5073500;28;20031;-54
2021/10/31 00:27:52;;;;;;;32.70;18.40;;;;;;;;;;5073405;28;20024;-54
2021/10/31 00:30:18;;;;;;;22.77;15.52;;;;;;;;;;5073398;28;20033;-54
2021/10/31 00:32:44;;;;;;;24.40;15.07;;;;;;;;;;5073545;28;20031;-54
2021/10/31 00:35:10;;;;;;;25.15;16.13;;;;;;;;;;5073375;28;20021;-54
2021/10/31 00:37:37;;;;;;;24.35;16.17;;;;;;;;;;5073267;28;20475;-54
2021/10/31 00:40:03;;;;;;;25.63;16.20;;;;;;;;;;5073365;28;20032;-54
2021/10/31 00:42:29;;;;;;;24.17;15.90;;;;;;;;;;5073142;28;20430;-55
2021/10/31 00:44:58;;;;;;;28.33;16.15;;;;;;;;;;5073245;28;20016;-54
2021/10/31 00:47:24;;;;;;;24.73;16.27;;;;;;;;;;5073182;28;20019;-57
2021/10/31 00:49:53;;;;;;;23.85;15.70;;;;;;;;;;5073211;28;20032;-55
2021/10/31 00:52:19;;;;;;;24.67;16.88;;;;;;;;;;5073253;28;20036;-54
2021/10/31 00:54:45;;;;;;;23.83;14.68;;;;;;;;;;5073282;28;20082;-54
2021/10/31 00:57:12;;;;;;;27.00;17.10;;;;;;;;;;5073023;28;20031;-54
2021/10/31 00:59:38;;;;;;;24.48;16.38;;;;;;;;;;5073254;28;20024;-54
2021/10/31 01:02:09;;;;;;;31.02;18.13;;;;;;;;;;5073051;28;20012;-54
2021/10/31 01:04:36;;;;;;;27.60;16.65;;;;;;;;;;5073257;28;20032;-57
2021/10/31 01:07:09;;;;;;;27.20;17.50;;;;;;;;;;5073141;28;20025;-54
2021/10/31 01:09:38;;;;;;;22.42;15.15;;;;;;;;;;5072968;28;20037;-54
2021/10/31 01:12:23;;;;;;;25.23;16.50;;;;;;;;;;5072685;28;20104;-54
2021/10/31 01:15:15;;;;;;;27.45;16.33;;;;;;;;;;5073110;28;20056;-55
2021/10/31 01:17:58;;;;;;;22.85;15.75;;;;;;;;;;5030960;28;20529;-54
2021/10/31 01:20:32;;;;;;;29.75;18.80;;;;;;;;;;5030878;28;20045;-54
2021/10/31 01:23:04;;;;;;;24.20;15.25;;;;;;;;;;5030852;28;20040;-54
2021/10/31 01:25:53;;;;;;;29.00;16.30;;;;;;;;;;5030897;28;20021;-54
2021/10/31 01:28:32;;;;;;;23.30;15.85;;;;;;;;;;4933521;29;20144;-54
2021/10/31 01:31:01;;;;;;;27.65;16.73;;;;;;;;;;4935381;29;20119;-55
2021/10/31 01:33:53;;;;;;;24.13;14.60;;;;;;;;;;4937272;29;20056;-55
2021/10/31 01:36:19;;;;;;;25.50;16.73;;;;;;;;;;4935429;29;20482;-55
2021/10/31 01:39:00;;;;;;;30.70;17.50;;;;;;;;;;4937357;29;20040;-55
2021/10/31 01:41:39;;;;;;;23.98;14.57;;;;;;;;;;4936850;29;20432;-55
2021/10/31 01:44:19;;;;;;;23.95;15.82;;;;;;;;;;4937056;29;20460;-55
2021/10/31 01:47:03;;;;;;;24.88;15.18;;;;;;;;;;4937030;29;20051;-55
2021/10/31 01:49:46;;;;;;;25.50;16.65;;;;;;;;;;4936921;29;20040;-54
2021/10/31 01:52:13;;;;;;;24.38;16.00;;;;;;;;;;4936919;29;20500;-55
2021/10/31 01:54:47;;;;;;;24.48;15.30;;;;;;;;;;4964634;28;20046;-55
2021/10/31 01:57:16;;;;;;;24.10;15.63;;;;;;;;;;4994708;28;20018;-55
2021/10/31 01:59:44;;;;;;;28.08;16.65;;;;;;;;;;4995002;28;20118;-56
2021/10/31 02:02:11;;;;;;;27.50;15.60;;;;;;;;;;4978469;28;20427;-54
2021/10/31 02:04:41;;;;;;;26.10;17.02;;;;;;;;;;5010662;28;20045;-55
2021/10/31 02:07:08;;;;;;;26.85;16.40;;;;;;;;;;5076105;28;20020;-55
2021/10/31 02:09:35;;;;;;;24.10;15.80;;;;;;;;;;5075821;28;20041;-56
2021/10/31 02:12:04;;;;;;;23.27;15.77;;;;;;;;;;5075949;28;20501;-54
2021/10/31 02:14:30;;;;;;;25.88;17.67;;;;;;;;;;5075951;28;20017;-54
2021/10/31 02:17:00;;;;;;;25.88;16.83;;;;;;;;;;5075815;28;20027;-54
2021/10/31 02:19:31;;;;;;;25.50;15.73;;;;;;;;;;5074276;28;20510;-55
2021/10/31 02:21:59;;;;;;;24.65;16.48;;;;;;;;;;5075744;28;20036;-55
2021/10/31 02:24:26;;;;;;;24.33;17.00;;;;;;;;;;5075760;28;20103;-55
2021/10/31 02:26:52;;;;;;;25.95;16.52;;;;;;;;;;5075606;28;20484;-55
2021/10/31 02:29:18;;;;;;;27.45;17.10;;;;;;;;;;5075413;28;20036;-55
2021/10/31 02:31:45;;;;;;;26.17;15.98;;;;;;;;;;5075536;28;20023;-55
2021/10/31 02:34:11;;;;;;;28.17;18.13;;;;;;;;;;5074230;28;20039;-54
2021/10/31 02:36:38;;;;;;;26.70;15.77;;;;;;;;;;5075375;28;20020;-55
2021/10/31 02:39:05;;;;;;;24.67;16.45;;;;;;;;;;5075435;28;20021;-54
2021/10/31 02:41:32;;;;;;;24.70;16.75;;;;;;;;;;5074859;28;20552;-55
2021/10/31 02:44:01;;;;;;;25.08;16.90;;;;;;;;;;5075086;28;20026;-55
2021/10/31 02:46:32;;;;;;;24.50;16.35;;;;;;;;;;5075122;28;20555;-54
2021/10/31 02:48:58;;;;;;;27.35;16.23;;;;;;;;;;5075154;28;20035;-55
2021/10/31 02:51:28;;;;;;;24.60;16.17;;;;;;;;;;5075209;28;20040;-55
2021/10/31 02:53:59;;;;;;;26.77;16.67;;;;;;;;;;5075151;28;20025;-53
2021/10/31 02:56:26;;;;;;;25.60;16.20;;;;;;;;;;5075053;28;20033;-54
2021/10/31 02:59:06;;;;;;;24.08;16.60;;;;;;;;;;5075011;28;20153;-54
2021/10/31 03:01:35;;;;;;;23.75;16.48;;;;;;;;;;5074993;28;20020;-54
2021/10/31 03:04:01;;;;;;;24.40;16.48;;;;;;;;;;5074890;28;20479;-56
2021/10/31 03:06:27;;;;;;;26.27;17.15;;;;;;;;;;5074810;28;20472;-54
2021/10/31 03:08:53;;;;;;;23.85;16.73;;;;;;;;;;5074768;28;20017;-55
2021/10/31 03:11:20;;;;;;;22.40;15.90;;;;;;;;;;5074619;28;20021;-55
2021/10/31 03:13:48;;;;;;;30.30;18.23;;;;;;;;;;5074604;28;20484;-54
2021/10/31 03:16:17;;;;;;;29.40;17.27;;;;;;;;;;5074652;28;20024;-55
2021/10/31 03:18:43;;;;;;;23.02;15.95;;;;;;;;;;5074359;28;20069;-55
2021/10/31 03:21:09;;;;;;;25.63;17.58;;;;;;;;;;5074722;28;20055;-55
2021/10/31 03:23:35;;;;;;;25.70;17.05;;;;;;;;;;5074550;28;20021;-55
2021/10/31 03:26:01;;;;;;;26.20;16.80;;;;;;;;;;5074549;28;20372;-56
2021/10/31 03:28:28;;;;;;;25.52;17.33;;;;;;;;;;5074240;28;20485;-56
2021/10/31 03:30:54;;;;;;;25.67;17.08;;;;;;;;;;5074312;28;20028;-55
2021/10/31 03:33:22;;;;;;;24.17;16.50;;;;;;;;;;5074427;28;20047;-56
2021/10/31 03:35:48;;;;;;;24.70;17.33;;;;;;;;;;5074350;28;20021;-55
2021/10/31 03:38:15;;;;;;;26.83;16.98;;;;;;;;;;5074302;28;20047;-56
2021/10/31 03:40:41;;;;;;;28.08;16.70;;;;;;;;;;5074152;28;20020;-56
2021/10/31 03:43:07;;;;;;;25.67;17.00;;;;;;;;;;5074051;28;20039;-55
2021/10/31 03:45:33;;;;;;;24.63;16.60;;;;;;;;;;5074104;28;20029;-55
2021/10/31 03:48:00;;;;;;;25.13;16.35;;;;;;;;;;5074264;28;20077;-55
2021/10/31 03:50:26;;;;;;;23.75;16.33;;;;;;;;;;5073874;28;20040;-55
2021/10/31 03:52:55;;;;;;;25.65;16.77;;;;;;;;;;5074032;28;20388;-55
2021/10/31 03:55:21;;;;;;;26.05;17.25;;;;;;;;;;5073841;28;20031;-55
2021/10/31 03:57:47;;;;;;;26.40;17.42;;;;;;;;;;5072758;28;20399;-55
2021/10/31 04:00:14;;;;;;;27.67;16.58;;;;;;;;;;5073765;28;20032;-55
2021/10/31 04:02:41;;;;;;;23.58;14.98;;;;;;;;;;5073833;28;20028;-55
2021/10/31 04:05:07;;;;;;;29.63;17.08;;;;;;;;;;5073764;28;20024;-55
2021/10/31 04:07:34;;;;;;;23.38;16.30;;;;;;;;;;5073857;28;20079;-56
2021/10/31 04:10:00;;;;;;;29.60;17.38;;;;;;;;;;5073573;28;20043;-56
2021/10/31 04:12:26;;;;;;;24.42;16.65;;;;;;;;;;5073587;28;20025;-56
2021/10/31 04:14:52;;;;;;;27.75;17.58;;;;;;;;;;5073554;28;20028;-56
2021/10/31 04:17:18;;;;;;;25.58;16.83;;;;;;;;;;5073775;28;20075;-55
2021/10/31 04:19:44;;;;;;;23.77;16.08;;;;;;;;;;5073360;28;20508;-55
2021/10/31 04:22:12;;;;;;;25.02;16.35;;;;;;;;;;5073617;28;20131;-56
2021/10/31 04:24:38;;;;;;;25.17;15.95;;;;;;;;;;5073579;28;20025;-55
2021/10/31 04:27:04;;;;;;;26.52;16.73;;;;;;;;;;5073382;28;20522;-56
2021/10/31 04:29:33;;;;;;;29.73;17.45;;;;;;;;;;5073261;28;20399;-57
2021/10/31 04:31:59;;;;;;;26.42;17.20;;;;;;;;;;5073366;28;20016;-56
2021/10/31 04:34:25;;;;;;;24.80;16.63;;;;;;;;;;5073348;28;20383;-54
2021/10/31 04:36:52;;;;;;;25.05;15.68;;;;;;;;;;5073423;28;20092;-55
2021/10/31 04:39:18;;;;;;;23.48;16.02;;;;;;;;;;5073352;28;20028;-55
2021/10/31 04:41:46;;;;;;;26.35;17.35;;;;;;;;;;5073311;28;20040;-55
2021/10/31 04:44:12;;;;;;;27.73;17.55;;;;;;;;;;5073245;28;20016;-55
2021/10/31 04:46:38;;;;;;;29.83;18.17;;;;;;;;;;5073175;28;20028;-56
2021/10/31 04:49:09;;;;;;;32.03;18.08;;;;;;;;;;5073141;28;20029;-55
2021/10/31 04:51:36;;;;;;;27.60;18.52;;;;;;;;;;5073379;28;20064;-55
2021/10/31 04:54:02;;;;;;;25.40;15.80;;;;;;;;;;5073194;28;20017;-55
2021/10/31 04:56:28;;;;;;;29.92;18.05;;;;;;;;;;5073270;28;20025;-56
2021/10/31 04:58:55;;;;;;;29.80;17.92;;;;;;;;;;5073010;28;20052;-55
2021/10/31 05:01:21;;;;;;;26.70;17.13;;;;;;;;;;5073159;28;20024;-55
2021/10/31 05:03:47;;;;;;;28.17;17.85;;;;;;;;;;5073167;28;20023;-55
2021/10/31 05:06:14;;;;;;;29.73;17.30;;;;;;;;;;5075591;28;20023;-55
2021/10/31 05:08:40;;;;;;;25.80;17.38;;;;;;;;;;5077049;28;20082;-54
2021/10/31 05:11:07;;;;;;;26.13;17.20;;;;;;;;;;5076993;28;20037;-55
2021/10/31 05:13:33;;;;;;;28.38;16.95;;;;;;;;;;5076873;28;20016;-54
2021/10/31 05:16:00;;;;;;;40.30;26.08;;;;;;;;;;5077000;28;20031;-54
2021/10/31 05:18:26;;;;;;;30.33;18.70;;;;;;;;;;5076679;28;20488;-54
2021/10/31 05:20:52;;;;;;;27.27;17.23;;;;;;;;;;5076722;28;20036;-54
2021/10/31 05:23:18;;;;;;;33.45;19.08;;;;;;;;;;5076858;28;20032;-54
2021/10/31 05:25:44;;;;;;;37.25;19.20;;;;;;;;;;5076929;28;20099;-55
2021/10/31 05:28:11;;;;;;;31.63;18.42;;;;;;;;;;5076488;28;20141;-54
2021/10/31 05:30:37;;;;;;;32.95;19.00;;;;;;;;;;5076528;28;20040;-55
2021/10/31 05:33:03;;;;;;;29.50;18.10;;;;;;;;;;5076655;28;20017;-54
2021/10/31 05:35:30;;;;;;;31.52;18.27;;;;;;;;;;5076539;28;20025;-55
2021/10/31 05:37:58;;;;;;;36.15;21.75;;;;;;;;;;5076584;28;20032;-55
2021/10/31 05:40:24;;;;;;;35.25;20.73;;;;;;;;;;5076501;28;20468;-54
2021/10/31 05:42:50;;;;;;;36.85;21.27;;;;;;;;;;5076304;28;20021;-54
2021/10/31 05:45:18;;;;;;;40.20;23.90;;;;;;;;;;5076274;28;20025;-55
2021/10/31 05:47:45;;;;;;;44.63;26.10;;;;;;;;;;5076310;28;20021;-55
2021/10/31 05:50:12;;;;;;;49.88;29.88;;;;;;;;;;5076016;28;20056;-54
2021/10/31 05:52:41;;;;;;;47.33;29.45;;;;;;;;;;5076109;28;20078;-55
2021/10/31 05:55:09;;;;;;;58.75;31.40;;;;;;;;;;5076066;28;20454;-55
2021/10/31 05:57:35;;;;;;;56.75;29.58;;;;;;;;;;5075834;28;20448;-55
2021/10/31 06:00:05;;;;;;;31.10;19.85;;;;;;;;;;5075975;28;20035;-53
2021/10/31 06:02:31;;;;;;;28.75;18.25;;;;;;;;;;5075976;28;20031;-54
2021/10/31 06:04:59;;;;;;;36.53;20.38;;;;;;;;;;5076059;28;20051;-56
2021/10/31 06:07:26;;;;;;;56.15;32.00;;;;;;;;;;5076076;28;20121;-55
2021/10/31 06:09:52;;;;;;;32.20;20.23;;;;;;;;;;5075707;28;20024;-52
2021/10/31 06:12:18;;;;;;;35.42;19.50;;;;;;;;;;5075822;28;20034;-55
2021/10/31 06:14:45;;;;;;;52.58;27.25;;;;;;;;;;5075776;28;20031;-51
2021/10/31 06:17:11;;;;;;;46.88;27.40;;;;;;;;;;5074534;28;20031;-54
2021/10/31 06:19:37;;;;;;;44.15;27.35;;;;;;;;;;5075571;28;20040;-54
2021/10/31 06:22:04;;;;;;;34.55;22.08;;;;;;;;;;5075701;28;20077;-50
2021/10/31 06:24:30;;;;;;;32.10;21.45;;;;;;;;;;5075724;28;20028;-51
2021/10/31 06:26:57;;;;;;;35.00;22.83;;;;;;;;;;5075574;28;20029;-52
2021/10/31 06:29:23;;;;;;;31.27;20.23;;;;;;;;;;5075280;28;20032;-51
2021/10/31 06:31:50;;;;;;;33.55;21.60;;;;;;;;;;5075464;28;20025;-51
2021/10/31 06:34:16;;;;;;;39.47;25.10;;;;;;;;;;5075506;28;20021;-52
2021/10/31 06:36:42;;;;;;;31.52;19.85;;;;;;;;;;5075544;28;20028;-54
2021/10/31 06:39:08;;;;;;;53.47;31.05;;;;;;;;;;5075381;28;20227;-52
2021/10/31 06:41:35;;;;;;;34.30;22.05;;;;;;;;;;5075324;28;20028;-52
2021/10/31 06:44:01;;;;;;;25.33;16.33;;;;;;;;;;5075167;28;20025;-53
2021/10/31 06:46:27;;;;;;;28.23;18.27;;;;;;;;;;5075169;28;20097;-53
2021/10/31 06:48:53;;;;;;;25.40;18.17;;;;;;;;;;5075209;28;20111;-53
2021/10/31 06:51:20;;;;;;;23.85;15.52;;;;;;;;;;5075014;28;20531;-53
2021/10/31 06:53:46;;;;;;;21.65;15.45;;;;;;;;;;5075134;28;20413;-53
2021/10/31 06:56:13;;;;;;;17.65;13.73;;;;;;;;;;5073877;28;20035;-54
2021/10/31 06:58:39;;;;;;;20.40;13.50;;;;;;;;;;5074849;28;20421;-53
2021/10/31 07:01:05;;;;;;;20.92;14.75;;;;;;;;;;5074857;28;20480;-54
2021/10/31 07:03:31;;;;;;;27.70;18.50;;;;;;;;;;5074891;28;20025;-54
2021/10/31 07:05:59;;;;;;;25.95;16.75;;;;;;;;;;5069027;28;20469;-54
2021/10/31 07:08:25;;;;;;;20.45;14.00;;;;;;;;;;5054354;28;20481;-54
2021/10/31 07:10:51;;;;;;;21.00;13.38;;;;;;;;;;5054664;28;20029;-54
2021/10/31 07:13:17;;;;;;;17.98;12.43;;;;;;;;;;5053889;28;20071;-53
2021/10/31 07:15:43;;;;;;;16.45;13.05;;;;;;;;;;5054244;28;20023;-53
2021/10/31 07:18:09;;;;;;;18.45;14.05;;;;;;;;;;5053903;28;20025;-54
2021/10/31 07:20:38;;;;;;;18.40;13.18;;;;;;;;;;5054123;28;20075;-53
2021/10/31 07:23:04;;;;;;;16.63;12.32;;;;;;;;;;5054183;28;20024;-53
2021/10/31 07:25:31;;;;;;;18.88;12.90;;;;;;;;;;5054254;28;20031;-46
2021/10/31 07:27:57;;;;;;;15.68;13.80;;;;;;;;;;5053442;28;20074;-45
2021/10/31 07:30:23;;;;;;;17.80;13.10;;;;;;;;;;5054004;28;20060;-46
2021/10/31 07:32:54;;;;;;;13.88;11.55;;;;;;;;;;5054126;28;20025;-46
2021/10/31 07:35:23;;;;;;;15.52;12.23;;;;;;;;;;5053797;28;20017;-45
2021/10/31 07:37:49;;;;;;;15.38;11.13;;;;;;;;;;5053842;28;20036;-45
2021/10/31 07:40:15;;;;;;;13.02;11.00;;;;;;;;;;5053813;28;20465;-46
2021/10/31 07:42:44;;;;;;;14.57;10.38;;;;;;;;;;5053509;28;20025;-45
2021/10/31 07:45:10;;;;;;;15.07;10.55;;;;;;;;;;5053760;28;20025;-45
2021/10/31 07:47:37;;;;;;;21.80;19.33;;;;;;;;;;5053684;28;20021;-46
2021/10/31 07:50:04;;;;;;;17.65;12.55;;;;;;;;;;5053681;28;20032;-46
2021/10/31 07:52:30;;;;;;;12.73;11.13;;;;;;;;;;5053600;28;20104;-46
2021/10/31 07:54:56;;;;;;;13.70;11.45;;;;;;;;;;5053555;28;20036;-46
2021/10/31 07:57:25;;;;;;;13.13;10.70;;;;;;;;;;5053319;28;20510;-46
2021/10/31 07:59:51;;;;;;;129.15;15.02;;;;;;;;;;5053532;28;20453;-44
2021/10/31 08:02:18;;;;;;;12.30;9.02;;;;;;;;;;5053440;28;20424;-44
2021/10/31 08:04:44;;;;;;;14.43;9.98;;;;;;;;;;5050755;28;20071;-44
2021/10/31 08:07:11;;;;;;;12.80;9.55;;;;;;;;;;5053349;28;20021;-44
2021/10/31 08:09:37;;;;;;;10.95;9.32;;;;;;;;;;5053182;28;20025;-43
2021/10/31 08:12:04;;;;;;;18.40;9.43;;;;;;;;;;5053065;28;20476;-44
2021/10/31 08:14:30;;;;;;;15.45;9.80;;;;;;;;;;5053196;28;20477;-43
2021/10/31 08:16:56;;;;;;;31.75;10.43;;;;;;;;;;5053399;28;20032;-49
2021/10/31 08:19:25;;;;;;;12.80;9.43;;;;;;;;;;5052666;28;20059;-44
2021/10/31 08:21:53;;;;;;;22.73;9.27;;;;;;;;;;5051900;28;20473;-43
2021/10/31 08:24:20;;;;;;;15.05;9.23;;;;;;;;;;5052973;28;20029;-44
2021/10/31 08:26:46;;;;;;;13.02;8.90;;;;;;;;;;5053406;28;20032;-44
2021/10/31 08:29:14;;;;;;;13.23;9.40;;;;;;;;;;5052769;28;20380;-44
2021/10/31 08:31:45;;;;;;;12.85;9.43;;;;;;;;;;5052889;28;20112;-44
2021/10/31 08:34:13;;;;;;;12.90;9.85;;;;;;;;;;5052930;28;20499;-45
2021/10/31 08:36:39;;;;;;;20.65;9.00;;;;;;;;;;5052887;28;20123;-45
2021/10/31 08:39:05;;;;;;;10.38;8.45;;;;;;;;;;5052840;28;20017;-45
2021/10/31 08:41:32;;;;;;;11.45;7.97;;;;;;;;;;5052078;28;20406;-45
2021/10/31 08:43:59;;;;;;;13.77;8.68;;;;;;;;;;5052744;28;20025;-46
2021/10/31 08:46:28;;;;;;;15.73;9.27;;;;;;;;;;5050230;28;20476;-44
2021/10/31 08:48:57;;;;;;;11.93;8.38;;;;;;;;;;5053062;28;20025;-44
2021/10/31 08:51:24;;;;;;;9.65;7.90;;;;;;;;;;5052618;28;20072;-45
2021/10/31 08:53:52;;;;;;;12.13;7.68;;;;;;;;;;5052659;28;20013;-44
2021/10/31 08:56:18;;;;;;;9.75;8.00;;;;;;;;;;5051082;28;20463;-45
2021/10/31 08:58:44;;;;;;;11.20;8.82;;;;;;;;;;5052593;28;20031;-45
2021/10/31 09:01:11;;;;;;;12.20;9.45;;;;;;;;;;5052536;28;20075;-47
2021/10/31 09:03:40;;;;;;;11.13;9.80;;;;;;;;;;5053046;28;20031;-45
2021/10/31 09:06:07;;;;;;;11.27;8.00;;;;;;;;;;5053048;28;20401;-45
2021/10/31 09:08:33;;;;;;;10.90;9.65;;;;;;;;;;5053309;28;20028;-45
2021/10/31 09:10:59;;;;;;;13.15;9.70;;;;;;;;;;5053101;28;20166;-45
2021/10/31 09:13:25;;;;;;;13.55;8.52;;;;;;;;;;5053129;28;20028;-49
2021/10/31 09:15:52;;;;;;;10.98;7.68;;;;;;;;;;5053279;28;20033;-46
2021/10/31 09:18:19;;;;;;;12.43;9.02;;;;;;;;;;5053008;28;20041;-47
2021/10/31 09:20:45;;;;;;;10.82;8.93;;;;;;;;;;5053043;28;20029;-45
2021/10/31 09:23:11;;;;;;;13.23;9.98;;;;;;;;;;5053050;28;20507;-45
2021/10/31 09:25:38;;;;;;;9.77;8.77;;;;;;;;;;5053004;28;20036;-46
2021/10/31 09:28:05;;;;;;;12.80;8.90;;;;;;;;;;5052923;28;20025;-45
2021/10/31 09:30:32;;;;;;;14.95;9.35;;;;;;;;;;5052804;28;20037;-46
2021/10/31 09:32:59;;;;;;;14.93;8.68;;;;;;;;;;5052969;28;20051;-46
2021/10/31 09:35:29;;;;;;;12.65;11.27;;;;;;;;;;5052811;28;20025;-46
2021/10/31 09:38:03;;;;;;;12.63;11.43;;;;;;;;;;5052947;28;20021;-46
2021/10/31 09:40:33;;;;;;;14.40;11.07;;;;;;;;;;5052647;28;20041;-46
2021/10/31 09:43:01;;;;;;;10.20;9.05;;;;;;;;;;5052746;28;20366;-46
2021/10/31 09:45:29;;;;;;;10.07;8.70;;;;;;;;;;5052962;28;20036;-46
2021/10/31 09:47:59;;;;;;;11.63;9.18;;;;;;;;;;5052717;28;20029;-46
2021/10/31 09:50:27;;;;;;;11.80;10.63;;;;;;;;;;5052590;28;20495;-46
2021/10/31 09:52:53;;;;;;;12.88;9.55;;;;;;;;;;5055891;28;20032;-45
2021/10/31 09:55:19;;;;;;;12.85;8.77;;;;;;;;;;5056433;28;20093;-46
2021/10/31 09:57:46;;;;;;;10.80;9.65;;;;;;;;;;5056210;28;20029;-47
2021/10/31 10:00:12;;;;;;;10.00;7.80;;;;;;;;;;5056262;28;20033;-46
2021/10/31 10:05:16;;;;;;;13.93;9.50;;;;;;;;;;5056548;28;20025;-46
2021/10/31 10:07:42;;;;;;;12.75;8.10;;;;;;;;;;5056013;28;20021;-51
2021/10/31 10:10:12;;;;;;;13.45;9.13;;;;;;;;;;5055983;28;20497;-46
2021/10/31 10:12:38;;;;;;;10.75;8.50;;;;;;;;;;5056114;28;20032;-46
2021/10/31 10:15:06;;;;;;;13.45;8.10;;;;;;;;;;5055900;28;20028;-46
2021/10/31 10:17:51;;;;;;;11.95;7.95;;;;;;;;;;5056187;28;20454;-45
2021/10/31 10:20:17;;;;;;;10.95;8.10;;;;;;;;;;5055572;28;20073;-45
2021/10/31 10:22:44;;;;;;;12.52;9.13;;;;;;;;;;5056072;28;20027;-44
2021/10/31 10:25:13;;;;;;;12.38;8.90;;;;;;;;;;5055808;28;20028;-45
2021/10/31 10:27:50;;;;;;;9.70;7.72;;;;;;;;;;5056040;28;20017;-44
2021/10/31 10:30:18;;;;;;;14.52;8.43;;;;;;;;;;5055625;28;20373;-45
2021/10/31 10:32:48;;;;;;;15.77;8.80;;;;;;;;;;5055563;28;20025;-45
2021/10/31 10:35:21;;;;;;;16.08;7.88;;;;;;;;;;5056057;28;20083;-44
2021/10/31 10:37:47;;;;;;;16.17;9.38;;;;;;;;;;5055642;28;20025;-45
2021/10/31 10:40:19;;;;;;;12.15;8.93;;;;;;;;;;5055785;28;20029;-46
2021/10/31 10:42:52;;;;;;;14.98;8.77;;;;;;;;;;5055399;28;20029;-44
2021/10/31 10:45:21;;;;;;;17.95;9.50;;;;;;;;;;5055811;28;20469;-44
2021/10/31 10:47:55;;;;;;;14.50;9.05;;;;;;;;;;5054939;28;20035;-44
2021/10/31 10:50:26;;;;;;;16.00;8.73;;;;;;;;;;5055498;28;20119;-49
2021/10/31 10:52:52;;;;;;;14.05;8.25;;;;;;;;;;5055387;28;20469;-48
2021/10/31 10:55:25;;;;;;;15.32;8.70;;;;;;;;;;5055421;28;20032;-48
2021/10/31 10:57:55;;;;;;;13.90;7.85;;;;;;;;;;5055087;28;20086;-48
2021/10/31 11:00:24;;;;;;;12.75;8.90;;;;;;;;;;5054943;28;20025;-48
2021/10/31 11:03:20;;;;;;;15.27;8.85;;;;;;;;;;5054365;28;20029;-48
2021/10/31 11:05:50;;;;;;;13.98;8.00;;;;;;;;;;5016370;28;20041;-48
2021/10/31 11:08:21;;;;;;;10.15;8.30;;;;;;;;;;5033032;28;20399;-49
2021/10/31 11:11:12;;;;;;;14.45;9.88;;;;;;;;;;5032742;28;20076;-49
2021/10/31 11:13:49;;;;;;;17.77;10.65;;;;;;;;;;5032687;28;20405;-49
2021/10/31 11:16:15;;;;;;;17.42;11.13;;;;;;;;;;5016461;28;20120;-49
2021/10/31 11:18:43;;;;;;;15.30;10.30;;;;;;;;;;5032715;28;20505;-49
2021/10/31 11:21:09;;;;;;;18.30;12.27;;;;;;;;;;5032568;28;20495;-49
2021/10/31 11:23:36;;;;;;;21.63;14.27;;;;;;;;;;5032971;28;20037;-49
2021/10/31 11:26:04;;;;;;;23.15;11.48;;;;;;;;;;5032788;28;20103;-49
2021/10/31 11:28:30;;;;;;;17.33;10.43;;;;;;;;;;5032571;28;20033;-49
2021/10/31 11:30:58;;;;;;;13.68;9.75;;;;;;;;;;5032520;28;20037;-49
2021/10/31 11:33:24;;;;;;;18.08;9.35;;;;;;;;;;5032417;28;20370;-49
2021/10/31 11:35:52;;;;;;;16.00;9.10;;;;;;;;;;5032417;28;20126;-48
2021/10/31 11:38:22;;;;;;;22.17;10.77;;;;;;;;;;5032380;28;20026;-49
2021/10/31 11:40:59;;;;;;;15.75;9.70;;;;;;;;;;5032358;28;20163;-49
2021/10/31 11:43:30;;;;;;;14.55;9.43;;;;;;;;;;5054472;28;20465;-49
2021/10/31 11:45:56;;;;;;;13.23;10.00;;;;;;;;;;5054271;28;20039;-49
2021/10/31 11:48:26;;;;;;;17.55;11.23;;;;;;;;;;5054382;28;20270;-49
2021/10/31 11:51:02;;;;;;;18.95;10.07;;;;;;;;;;5054126;28;20349;-49
2021/10/31 11:53:30;;;;;;;15.23;9.88;;;;;;;;;;5054215;28;20071;-49
2021/10/31 11:56:14;;;;;;;20.02;11.60;;;;;;;;;;5054069;28;20036;-49
2021/10/31 11:58:43;;;;;;;18.77;10.48;;;;;;;;;;5053863;28;20032;-48
2021/10/31 12:01:14;;;;;;;19.75;10.93;;;;;;;;;;5053764;28;20499;-49
2021/10/31 12:03:42;;;;;;;14.25;10.18;;;;;;;;;;5054074;28;20025;-49
2021/10/31 12:06:17;;;;;;;16.42;11.30;;;;;;;;;;5053720;28;20087;-49
2021/10/31 12:08:47;;;;;;;15.07;11.63;;;;;;;;;;5053716;28;20141;-49
2021/10/31 12:11:17;;;;;;;17.13;12.07;;;;;;;;;;5053659;28;20477;-49
2021/10/31 12:13:47;;;;;;;18.67;10.77;;;;;;;;;;5053721;28;20025;-49
2021/10/31 12:16:14;;;;;;;15.70;10.00;;;;;;;;;;5052964;28;20362;-48
2021/10/31 12:18:48;;;;;;;18.73;10.68;;;;;;;;;;5053399;28;20048;-49
2021/10/31 12:21:24;;;;;;;16.63;10.57;;;;;;;;;;5053617;28;20028;-49
2021/10/31 12:23:53;;;;;;;16.17;10.35;;;;;;;;;;5053614;28;20431;-49
2021/10/31 12:26:20;;;;;;;14.88;9.57;;;;;;;;;;5053469;28;20020;-48
2021/10/31 12:28:49;;;;;;;13.82;9.70;;;;;;;;;;5053645;28;20036;-49
2021/10/31 12:31:22;;;;;;;15.32;10.50;;;;;;;;;;5053456;28;20039;-48
2021/10/31 12:34:06;;;;;;;19.67;11.90;;;;;;;;;;5053449;28;20032;-48
2021/10/31 12:36:33;;;;;;;19.17;10.70;;;;;;;;;;5053447;28;20473;-48
2021/10/31 12:38:59;;;;;;;17.88;12.38;;;;;;;;;;5053234;28;20495;-48
2021/10/31 12:41:28;;;;;;;18.45;13.00;;;;;;;;;;5053527;28;20017;-49
2021/10/31 12:43:59;;;;;;;21.13;12.32;;;;;;;;;;5053334;28;20461;-49
2021/10/31 12:46:30;;;;;;;19.57;12.30;;;;;;;;;;5053360;28;20078;-49
2021/10/31 12:49:01;;;;;;;19.88;10.50;;;;;;;;;;5053498;28;20094;-49
2021/10/31 12:51:38;;;;;;;17.15;10.65;;;;;;;;;;5053152;28;20146;-49
2021/10/31 12:54:04;;;;;;;20.00;12.15;;;;;;;;;;5052419;28;20100;-48
2021/10/31 12:56:31;;;;;;;19.80;10.30;;;;;;;;;;5053246;28;20029;-48
2021/10/31 12:59:06;;;;;;;16.88;9.70;;;;;;;;;;5053563;28;20099;-48
2021/10/31 13:01:33;;;;;;;17.50;10.60;;;;;;;;;;5053219;28;20106;-51
2021/10/31 13:04:04;;;;;;;15.23;10.00;;;;;;;;;;5053131;28;20025;-49
2021/10/31 13:06:50;;;;;;;17.23;10.50;;;;;;;;;;5053189;28;20484;-49
2021/10/31 13:09:16;;;;;;;19.92;10.10;;;;;;;;;;5053179;28;20075;-49
2021/10/31 13:11:47;;;;;;;16.20;9.43;;;;;;;;;;5053088;28;20040;-49
2021/10/31 13:14:29;;;;;;;25.65;13.43;;;;;;;;;;5051809;28;20527;-49
2021/10/31 13:17:03;;;;;;;13.40;9.93;;;;;;;;;;5053028;28;20025;-48
2021/10/31 13:19:31;;;;;;;18.08;10.23;;;;;;;;;;5052936;28;20055;-49
2021/10/31 13:22:01;;;;;;;16.38;10.50;;;;;;;;;;5053193;28;20091;-50
2021/10/31 13:24:27;;;;;;;16.83;9.77;;;;;;;;;;5053158;28;20032;-48
2021/10/31 13:26:53;;;;;;;14.50;10.02;;;;;;;;;;5054586;28;20473;-48
2021/10/31 13:29:20;;;;;;;21.77;11.13;;;;;;;;;;5056665;28;20408;-49
2021/10/31 13:31:46;;;;;;;15.40;9.43;;;;;;;;;;5056714;28;20040;-46
2021/10/31 13:34:12;;;;;;;14.27;9.75;;;;;;;;;;5056604;28;20051;-48
2021/10/31 13:36:39;;;;;;;16.65;9.35;;;;;;;;;;5056533;28;20465;-47
2021/10/31 13:39:12;;;;;;;16.00;10.50;;;;;;;;;;5056758;28;20426;-47
2021/10/31 13:41:38;;;;;;;14.13;10.23;;;;;;;;;;5056501;28;20388;-47
2021/10/31 13:44:19;;;;;;;13.70;9.35;;;;;;;;;;5056329;28;20029;-47
2021/10/31 13:47:13;;;;;;;16.63;9.73;;;;;;;;;;5055290;28;20028;-45
2021/10/31 13:49:44;;;;;;;13.35;9.85;;;;;;;;;;5054820;28;20033;-44
2021/10/31 13:52:11;;;;;;;12.05;8.55;;;;;;;;;;5055703;28;20511;-45
2021/10/31 13:54:38;;;;;;;15.77;8.68;;;;;;;;;;5056094;28;20078;-44
2021/10/31 13:57:04;;;;;;;14.65;9.32;;;;;;;;;;5056092;28;20033;-46
2021/10/31 13:59:34;;;;;;;12.65;8.38;;;;;;;;;;5055434;28;20017;-44
2021/10/31 14:02:01;;;;;;;16.52;9.25;;;;;;;;;;5055697;28;20025;-42
2021/10/31 14:04:32;;;;;;;14.95;8.70;;;;;;;;;;5055497;28;20013;-66
2021/10/31 14:07:02;;;;;;;25.70;12.95;;;;;;;;;;5053052;28;20036;-65
2021/10/31 14:09:28;;;;;;;24.83;11.63;;;;;;;;;;5055628;28;20033;-65
2021/10/31 14:11:56;;;;;;;16.17;10.23;;;;;;;;;;5055028;28;20064;-61
2021/10/31 14:14:34;;;;;;;14.75;8.77;;;;;;;;;;5055290;28;20833;-67
2021/10/31 14:17:10;;;;;;;14.93;8.65;;;;;;;;;;5053121;28;20059;-63
2021/10/31 14:19:37;;;;;;;21.45;11.70;;;;;;;;;;5054986;28;20075;-65
2021/10/31 14:22:05;;;;;;;19.50;10.73;;;;;;;;;;5055155;28;20417;-60
2021/10/31 14:24:31;;;;;;;13.75;9.52;;;;;;;;;;5055258;28;20020;-65
2021/10/31 14:26:58;;;;;;;19.35;10.07;;;;;;;;;;5052583;28;20023;-67
2021/10/31 14:29:29;;;;;;;12.95;9.07;;;;;;;;;;5055093;28;20036;-64
2021/10/31 14:31:58;;;;;;;14.65;8.52;;;;;;;;;;5054903;28;20040;-68